ESSAESSD

Guest
Details From ESSA - Stockholm Arlanda
To ESSD - Borlange
Flight Number -
Tags generated
Created
Modified
Stats Distance 87 nm / 160 km
Max Altitude 0 ft / 0 m
Waypoints 3
Social Downloads 0
Likes 0
Share VATSIM

Download

Looking for another format? Having issues loading an existing format? Contact us
Advertisement - Login to hide

Notes

Basic altitude profile: - Ascent Rate: 2500ft/min - Ascent Speed: 250kts - Cruise Altitude: 10000ft - Cruise Speed: 420kts - Descent Rate: 1500ft/min - Descent Speed: 250kts

Route

ESSA BOR ESSD

ID Type Via Altitude Latitude Longitude Leg Dist Tot Dist Heading (true) Name
O ESSA APT - 0 ft / 0 m 59.65014˚ 17.94363˚ - 0 nm - Stockholm Arlanda
BOR VOR - 0 ft / 0 m 60.42150˚ 15.51919˚ 86 nm 86 nm 304° / 301° BORLANGE VOR-DME
O ESSD APT - 0 ft / 0 m 60.42442˚ 15.50584˚ 0 nm 86 nm 294° / 294° Borlange

Altitude Profile

Advertisement - Login to hide

ESSA

Details ICAO ESSA (ARN)
Name Stockholm Arlanda
Region Sweden
Timezone Europe/Stockholm (UTC+1.0)
Stats Elevation 137 ft / 42 m (AMSL)
Location 59.650140° 17.943628°
Runways 3
Magnetic Variation 6.102° E

METAR

ESSA 161850Z 34012KT 9999 OVC007 00/M00 Q1003 R01L/29//76 R01R/29//80 R08/29//74 TEMPO BKN012

Decode

TAF

TAF ESSA 161730Z 1618/1718 35010KT 9999 -DZ OVC008 PROB40 1618/1621 SCT008 BKN015 BECMG 1621/1623 FEW015 BECMG 1704/1706 29007KT

Decode

Departure Runways

ID Width Length Bearing (true) Bearing (mag) Surface Threshold Offset Overrun Length
01L 148 ft / 45 m 10,812 ft / 3,296 m 10.35° 4.25° Concrete 0 ft / 0 m 0 ft / 0 m
01R 148 ft / 45 m 8,188 ft / 2,496 m 10.38° 4.28° Asphalt 0 ft / 0 m 0 ft / 0 m
08 148 ft / 45 m 8,178 ft / 2,493 m 75.83° 69.73° Concrete 0 ft / 0 m 0 ft / 0 m
19L 148 ft / 45 m 8,188 ft / 2,496 m 190.39° 184.29° Asphalt 0 ft / 0 m 0 ft / 0 m
19R 148 ft / 45 m 10,812 ft / 3,296 m 190.36° 184.26° Concrete 0 ft / 0 m 0 ft / 0 m
26 148 ft / 45 m 8,178 ft / 2,493 m 255.87° 249.77° Concrete 0 ft / 0 m 0 ft / 0 m

ESSD

Details ICAO ESSD (BLE)
Name Borlange
Region Sweden
Timezone Europe/Stockholm (UTC+1.0)
Stats Elevation 503 ft / 153 m (AMSL)
Location 60.424422° 15.505841°
Runways 2
Magnetic Variation 5.244° E

METAR

ESSD 161850Z AUTO 34006KT 9999 NCD M06/M07 Q1006

Decode

TAF

Not found

Destination Runways

ID Width Length Bearing (true) Bearing (mag) Surface Threshold Offset Overrun Length
12 163 ft / 50 m 2,362 ft / 720 m 120.00° 114.76° Grass 0 ft / 0 m 0 ft / 0 m
14 148 ft / 45 m 7,561 ft / 2,305 m 132.46° 127.22° Asphalt 0 ft / 0 m 210 ft / 64 m
30 163 ft / 50 m 2,362 ft / 720 m 300.00° 294.76° Grass 0 ft / 0 m 0 ft / 0 m
32 148 ft / 45 m 7,561 ft / 2,305 m 312.49° 307.25° Asphalt 0 ft / 0 m 113 ft / 34 m

Approach Navaids

Runway Type Ident Frequency Range Bearing (true) Bearing (mag) Slope Elevation
32 Localiser SD 109.50 MHz 18 nm / 33 km 312.44° 307.20° - 503 ft / 153 m (AMSL)
32 Glidescope SD 109.50 MHz 10 nm / 19 km 312.48° 307.23° 3.00° 503 ft / 153 m (AMSL)

Popular Alternatives